Time;durP1;ratioP1;P1;durP2;ratioP2;P2;SDS_P1;SDS_P2;PMS_P1;PMS_P2;Temp;Humidity;BMP_temperature;BMP_pressure;BME280_temperature;BME280_humidity;BME280_pressure;Samples;Min_cycle;Max_cycle;Signal;HPM_P1;HPM_P2
2020/12/13 00:00:40;;;;;;;16.48;7.20;;;5.40;90.40;;;;;;5100326;28;20307;-81
2020/12/13 00:03:08;;;;;;;12.52;4.85;;;5.40;90.50;;;;;;5097471;28;20060;-78
2020/12/13 00:05:35;;;;;;;15.20;6.03;;;5.30;90.70;;;;;;5086176;28;20213;-80
2020/12/13 00:08:04;;;;;;;16.02;6.82;;;5.30;90.80;;;;;;5082361;28;20052;-82
2020/12/13 00:10:32;;;;;;;12.27;5.32;;;5.20;91.10;;;;;;5083158;28;20053;-80
2020/12/13 00:12:59;;;;;;;13.13;6.25;;;5.30;91.00;;;;;;5065472;28;20090;-81
2020/12/13 00:15:27;;;;;;;14.68;6.90;;;5.20;91.20;;;;;;5089082;28;20048;-80
2020/12/13 00:17:54;;;;;;;12.57;6.57;;;5.20;91.20;;;;;;5085145;28;20197;-83
2020/12/13 00:20:22;;;;;;;12.88;5.35;;;5.30;91.20;;;;;;5079083;28;20086;-79
2020/12/13 00:22:49;;;;;;;13.38;6.13;;;5.30;91.20;;;;;;5092765;28;20314;-82
2020/12/13 00:25:17;;;;;;;15.45;6.50;;;5.40;91.00;;;;;;5064174;28;20057;-79
2020/12/13 00:27:46;;;;;;;16.52;6.93;;;5.30;91.20;;;;;;5070917;28;20051;-78
2020/12/13 00:30:13;;;;;;;16.67;5.97;;;5.30;91.20;;;;;;5067828;28;20070;-80
2020/12/13 00:32:40;;;;;;;15.07;5.93;;;5.20;91.20;;;;;;5080732;28;20294;-79
2020/12/13 00:35:07;;;;;;;15.77;6.38;;;5.20;91.30;;;;;;5081318;28;20057;-80
2020/12/13 00:37:35;;;;;;;13.52;5.65;;;5.20;91.30;;;;;;5086370;28;20047;-80
2020/12/13 00:40:08;;;;;;;15.43;6.78;;;5.20;91.40;;;;;;5088050;28;20290;-80
2020/12/13 00:42:35;;;;;;;13.73;6.28;;;5.30;91.40;;;;;;5059549;28;20083;-81
2020/12/13 00:45:08;;;;;;;15.00;6.93;;;5.40;91.40;;;;;;5084248;28;20350;-80
2020/12/13 00:47:35;;;;;;;17.05;7.57;;;5.40;90.80;;;;;;5064078;28;20131;-82
2020/12/13 00:50:03;;;;;;;20.15;8.05;;;5.40;90.60;;;;;;5082690;28;20386;-81
2020/12/13 00:52:31;;;;;;;18.42;7.47;;;5.40;90.80;;;;;;5062153;28;20094;-80
2020/12/13 00:55:01;;;;;;;17.60;7.32;;;5.40;90.70;;;;;;5083406;28;20042;-80
2020/12/13 00:57:33;;;;;;;15.88;6.70;;;5.40;90.70;;;;;;5081622;28;20064;-81
2020/12/13 01:00:02;;;;;;;14.27;5.72;;;5.50;90.80;;;;;;5078007;28;20119;-80
2020/12/13 01:02:32;;;;;;;13.80;5.88;;;5.40;90.40;;;;;;5064204;28;20076;-81
2020/12/13 01:04:58;;;;;;;14.82;6.32;;;5.50;90.90;;;;;;5065479;28;20115;-81
2020/12/13 01:07:28;;;;;;;13.20;5.05;;;5.50;90.40;;;;;;5077567;28;20232;-81
2020/12/13 01:09:56;;;;;;;12.02;5.72;;;5.50;90.20;;;;;;5061871;28;20049;-80
2020/12/13 01:12:25;;;;;;;11.07;6.57;;;5.50;90.30;;;;;;5079823;28;20032;-81
2020/12/13 01:14:52;;;;;;;13.50;5.20;;;5.50;90.10;;;;;;5116695;27;20040;-79
2020/12/13 01:17:25;;;;;;;13.88;5.82;;;5.50;90.30;;;;;;5117428;27;20119;-79
2020/12/13 01:19:53;;;;;;;14.95;5.47;;;5.40;90.50;;;;;;5084572;28;20064;-81
2020/12/13 01:22:23;;;;;;;10.80;5.90;;;5.40;90.70;;;;;;5086264;28;20056;-81
2020/12/13 01:24:50;;;;;;;13.13;6.18;;;5.50;90.50;;;;;;5061204;28;20217;-81
2020/12/13 01:27:17;;;;;;;16.33;7.35;;;5.60;90.30;;;;;;5081745;28;20369;-81
2020/12/13 01:29:47;;;;;;;17.65;6.97;;;5.60;90.10;;;;;;5081714;28;20037;-80
2020/12/13 01:32:14;;;;;;;13.27;6.03;;;5.60;90.00;;;;;;5080023;28;20062;-81
2020/12/13 01:34:41;;;;;;;14.15;5.72;;;5.60;90.00;;;;;;5073939;28;20071;-78
2020/12/13 01:37:08;;;;;;;12.07;5.50;;;5.50;90.10;;;;;;5082832;28;20066;-79
2020/12/13 01:39:37;;;;;;;15.82;5.93;;;5.50;90.10;;;;;;5095184;28;20051;-80
2020/12/13 01:42:05;;;;;;;13.02;5.93;;;5.50;90.30;;;;;;5082996;28;20052;-80
2020/12/13 01:44:33;;;;;;;14.85;5.95;;;5.50;90.40;;;;;;5079228;28;20040;-80
2020/12/13 01:47:06;;;;;;;11.27;5.82;;;5.60;90.20;;;;;;5080591;28;20357;-79
2020/12/13 01:49:35;;;;;;;18.20;7.75;;;5.60;90.10;;;;;;5062651;28;20052;-80
2020/12/13 01:55:03;;;;;;;12.23;5.55;;;5.50;90.50;;;;;;5080185;28;20041;-80
2020/12/13 01:57:34;;;;;;;12.82;5.43;;;5.50;90.20;;;;;;5079705;28;20110;-81
2020/12/13 02:00:06;;;;;;;16.13;6.43;;;5.50;90.10;;;;;;5074810;28;20082;-81
2020/12/13 02:02:38;;;;;;;11.80;5.78;;;5.50;90.10;;;;;;5095012;28;21693;-79
2020/12/13 02:05:28;;;;;;;12.10;5.90;;;5.40;90.30;;;;;;5090470;28;20119;-81
2020/12/13 02:08:22;;;;;;;;;;;;;;;;;;;;;
2020/12/13 02:10:52;;;;;;;13.07;5.38;;;5.50;90.10;;;;;;5071580;28;20098;-80
2020/12/13 02:13:19;;;;;;;12.70;4.93;;;5.50;90.20;;;;;;5064264;28;20087;-81
2020/12/13 02:15:52;;;;;;;12.95;5.60;;;5.50;90.40;;;;;;5076004;28;20032;-80
2020/12/13 02:18:20;;;;;;;11.10;4.70;;;5.50;90.30;;;;;;5076262;28;20059;-80
2020/12/13 02:20:50;;;;;;;12.95;5.15;;;5.50;90.30;;;;;;5080499;28;20354;-79
2020/12/13 02:23:18;;;;;;;12.00;4.90;;;5.50;90.30;;;;;;5071892;28;20051;-80
2020/12/13 02:25:46;;;;;;;14.10;6.03;;;5.50;90.40;;;;;;5081856;28;20298;-80
2020/12/13 02:28:13;;;;;;;12.75;5.28;;;5.50;90.40;;;;;;5074085;28;20387;-80
2020/12/13 02:30:40;;;;;;;12.60;4.70;;;5.50;90.60;;;;;;5079045;28;20351;-79
2020/12/13 02:33:08;;;;;;;16.95;5.88;;;5.40;90.90;;;;;;5079811;28;20044;-80
2020/12/13 02:35:35;;;;;;;12.43;5.22;;;5.40;91.40;;;;;;5063159;28;20044;-81
2020/12/13 02:38:03;;;;;;;13.10;5.45;;;5.40;91.20;;;;;;5076140;28;20060;-79
2020/12/13 02:40:31;;;;;;;10.93;5.45;;;5.40;91.10;;;;;;5075885;28;20060;-80
2020/12/13 02:42:59;;;;;;;15.98;6.20;;;5.40;91.30;;;;;;5081550;28;20131;-80
2020/12/13 02:45:55;;;;;;;11.85;5.45;;;5.30;91.40;;;;;;5076540;28;20072;-80
2020/12/13 02:48:23;;;;;;;12.33;5.90;;;5.30;91.40;;;;;;5078474;28;20063;-79
2020/12/13 02:50:50;;;;;;;10.20;5.03;;;5.40;91.60;;;;;;5053426;28;20052;-79
2020/12/13 02:53:18;;;;;;;13.07;5.22;;;5.50;90.90;;;;;;5059943;28;20128;-79
2020/12/13 02:55:46;;;;;;;16.77;6.47;;;5.60;90.50;;;;;;5094825;28;20052;-80
2020/12/13 02:58:13;;;;;;;10.77;5.80;;;5.60;90.10;;;;;;5094629;28;20052;-79
2020/12/13 03:00:40;;;;;;;13.02;5.00;;;5.50;90.40;;;;;;5078781;28;20067;-80
2020/12/13 03:03:06;;;;;;;13.45;5.30;;;5.60;90.50;;;;;;5058503;28;20056;-81
2020/12/13 03:05:34;;;;;;;11.32;5.30;;;5.60;90.60;;;;;;5060754;28;20047;-80
2020/12/13 03:08:01;;;;;;;13.60;5.47;;;5.60;90.50;;;;;;5080543;28;20108;-80
2020/12/13 03:10:29;;;;;;;11.63;4.40;;;5.50;90.70;;;;;;5062435;28;20071;-81
2020/12/13 03:12:57;;;;;;;10.65;4.00;;;5.50;90.90;;;;;;5067481;28;20048;-81
2020/12/13 03:15:24;;;;;;;12.18;4.95;;;5.60;90.40;;;;;;5096286;28;20052;-81
2020/12/13 03:17:51;;;;;;;12.40;5.88;;;5.60;90.20;;;;;;5081227;28;20052;-81
2020/12/13 03:20:18;;;;;;;11.95;5.82;;;5.50;90.40;;;;;;5085879;28;20056;-81
2020/12/13 03:22:45;;;;;;;16.35;6.15;;;5.50;90.60;;;;;;5056669;28;20371;-80
2020/12/13 03:25:12;;;;;;;10.43;4.72;;;5.50;91.00;;;;;;5083756;28;20044;-79
2020/12/13 03:27:40;;;;;;;9.27;4.80;;;5.50;91.00;;;;;;5081911;28;20055;-80
2020/12/13 03:30:08;;;;;;;15.13;5.72;;;5.40;91.10;;;;;;5081620;28;20053;-81
2020/12/13 03:32:36;;;;;;;12.32;6.30;;;5.50;91.20;;;;;;5098202;28;20060;-79
2020/12/13 03:35:04;;;;;;;11.15;4.95;;;5.50;91.00;;;;;;5082867;28;20036;-81
2020/12/13 03:37:31;;;;;;;14.77;4.85;;;5.60;91.10;;;;;;5067027;28;20056;-81
2020/12/13 03:40:00;;;;;;;13.23;5.25;;;5.70;90.80;;;;;;5080840;28;20066;-81
2020/12/13 03:42:28;;;;;;;;;;;5.70;90.70;;;;;;5084243;28;20119;-82
2020/12/13 03:44:55;;;;;;;10.05;4.70;;;5.70;90.50;;;;;;5085632;28;19924;-80
2020/12/13 03:47:24;;;;;;;13.48;5.65;;;5.60;90.80;;;;;;5084645;28;20404;-81
2020/12/13 03:49:51;;;;;;;13.48;5.57;;;5.60;90.70;;;;;;5080389;28;20060;-80
2020/12/13 03:52:18;;;;;;;15.32;5.68;;;5.50;91.00;;;;;;5077555;28;20060;-80
2020/12/13 03:54:45;;;;;;;11.75;4.60;;;5.60;91.10;;;;;;5082632;28;20060;-81
2020/12/13 03:57:12;;;;;;;12.95;6.43;;;5.50;91.20;;;;;;5076297;28;20059;-81
2020/12/13 03:59:39;;;;;;;12.25;5.20;;;5.40;91.60;;;;;;5064922;28;20072;-81
2020/12/13 04:02:06;;;;;;;15.98;5.70;;;5.50;91.70;;;;;;5083081;28;20056;-80
2020/12/13 04:04:34;;;;;;;17.40;6.45;;;5.60;91.10;;;;;;5081247;28;20044;-81
2020/12/13 04:07:01;;;;;;;11.75;5.68;;;5.70;90.90;;;;;;5095551;28;21604;-79
2020/12/13 04:09:28;;;;;;;15.77;5.93;;;5.70;91.10;;;;;;5081801;28;20373;-79
2020/12/13 04:11:55;;;;;;;18.10;6.78;;;5.70;90.90;;;;;;5078645;28;20134;-79
2020/12/13 04:14:22;;;;;;;18.85;5.95;;;5.70;90.80;;;;;;5080173;28;20048;-81
2020/12/13 04:16:50;;;;;;;16.58;6.13;;;5.60;91.20;;;;;;5080610;28;20065;-80
2020/12/13 04:19:17;;;;;;;20.58;6.90;;;5.60;91.20;;;;;;5061178;28;20048;-81
2020/12/13 04:21:45;;;;;;;22.33;6.13;;;5.60;91.40;;;;;;5082502;28;20059;-81
2020/12/13 04:24:11;;;;;;;21.58;8.05;;;5.60;91.80;;;;;;5065205;28;20062;-81
2020/12/13 04:26:39;;;;;;;20.15;5.45;;;5.50;91.70;;;;;;5078771;28;20056;-81
2020/12/13 04:29:06;;;;;;;18.80;6.88;;;5.50;91.70;;;;;;5077025;28;20065;-80
2020/12/13 04:31:33;;;;;;;21.48;7.22;;;5.60;91.90;;;;;;5066626;28;21265;-80
2020/12/13 04:34:00;;;;;;;15.77;6.22;;;5.50;91.70;;;;;;5076820;28;20339;-80
2020/12/13 04:36:28;;;;;;;17.23;6.50;;;5.50;91.80;;;;;;5083122;28;20363;-81
2020/12/13 04:38:56;;;;;;;22.40;7.22;;;5.50;91.90;;;;;;5080579;28;20056;-80
2020/12/13 04:41:23;;;;;;;17.33;6.40;;;5.50;91.80;;;;;;5075670;28;20071;-80
2020/12/13 04:43:50;;;;;;;13.70;5.50;;;5.40;91.90;;;;;;5077357;28;20112;-80
2020/12/13 04:46:17;;;;;;;19.10;6.47;;;5.40;91.90;;;;;;5057916;28;20071;-79
2020/12/13 04:48:47;;;;;;;24.10;7.18;;;5.40;92.20;;;;;;5060095;28;20048;-82
2020/12/13 04:51:20;;;;;;;17.75;6.30;;;5.50;92.30;;;;;;5086771;28;20090;-79
2020/12/13 04:53:50;;;;;;;21.13;7.07;;;5.50;92.20;;;;;;5085444;28;20057;-79
2020/12/13 04:56:22;;;;;;;16.52;6.50;;;5.40;92.40;;;;;;5083689;28;20052;-80
2020/12/13 04:58:50;;;;;;;18.25;6.50;;;5.30;92.80;;;;;;5081642;28;20056;-78
2020/12/13 05:01:18;;;;;;;16.25;5.78;;;5.50;92.70;;;;;;5113282;27;20064;-79
2020/12/13 05:03:45;;;;;;;22.27;6.47;;;5.60;92.30;;;;;;5088433;28;20067;-80
2020/12/13 05:06:14;;;;;;;21.65;7.90;;;5.70;92.00;;;;;;5081330;28;20167;-80
2020/12/13 05:08:41;;;;;;;21.38;6.72;;;5.60;91.90;;;;;;5071932;28;20090;-80
2020/12/13 05:11:08;;;;;;;20.35;7.20;;;5.70;91.90;;;;;;5077077;28;20045;-81
2020/12/13 05:13:38;;;;;;;18.08;6.80;;;5.60;92.00;;;;;;5056895;28;20056;-79
2020/12/13 05:16:07;;;;;;;19.80;6.80;;;5.50;92.40;;;;;;5080597;28;20090;-78
2020/12/13 05:18:38;;;;;;;23.05;7.10;;;5.50;92.40;;;;;;5061421;28;20052;-80
2020/12/13 05:21:05;;;;;;;21.70;6.28;;;5.50;92.50;;;;;;5107616;28;20248;-80
2020/12/13 05:23:33;;;;;;;22.92;7.90;;;5.50;92.70;;;;;;5079673;28;20070;-79
2020/12/13 05:26:01;;;;;;;18.58;7.18;;;5.60;92.50;;;;;;5073958;28;20055;-80
2020/12/13 05:28:28;;;;;;;20.77;6.82;;;5.50;92.50;;;;;;5074742;28;20060;-79
2020/12/13 05:30:56;;;;;;;23.70;6.45;;;5.40;92.90;;;;;;5108922;28;20126;-79
2020/12/13 05:33:27;;;;;;;24.00;7.18;;;5.50;92.80;;;;;;5079312;28;20274;-79
2020/12/13 05:36:00;;;;;;;22.08;7.90;;;5.50;92.90;;;;;;5081852;28;20036;-79
2020/12/13 05:38:33;;;;;;;24.10;7.72;;;5.50;92.80;;;;;;5075793;28;20066;-80
2020/12/13 05:41:01;;;;;;;21.15;7.10;;;5.40;93.20;;;;;;5076233;28;20071;-80
2020/12/13 05:43:30;;;;;;;22.50;6.88;;;5.40;93.40;;;;;;5077153;28;20068;-80
2020/12/13 05:51:40;;;;;;;22.83;6.85;;;5.50;93.30;;;;;;5057830;28;20064;-80
2020/12/13 05:54:20;;;;;;;24.80;7.13;;;5.60;93.00;;;;;;5105405;28;20060;-80
2020/12/13 05:56:55;;;;;;;22.45;7.55;;;5.60;93.00;;;;;;5060751;28;20048;-79
2020/12/13 05:59:24;;;;;;;20.42;8.82;;;5.60;93.10;;;;;;5065317;28;20611;-78
2020/12/13 06:01:55;;;;;;;22.70;8.00;;;5.50;93.10;;;;;;5080217;28;20103;-80
2020/12/13 06:04:27;;;;;;;21.23;7.90;;;5.60;93.20;;;;;;5080923;28;20048;-80
2020/12/13 06:07:03;;;;;;;22.00;8.30;;;5.60;93.10;;;;;;5079116;28;20048;-80
2020/12/13 06:09:44;;;;;;;22.20;6.30;;;5.50;93.30;;;;;;5060181;28;20378;-80
2020/12/13 06:12:13;;;;;;;20.00;6.05;;;5.50;93.40;;;;;;5074033;28;20048;-79
2020/12/13 06:14:42;;;;;;;27.33;8.77;;;5.50;93.30;;;;;;5080527;28;20369;-80
2020/12/13 06:17:10;;;;;;;35.05;9.95;;;5.60;93.40;;;;;;5079227;28;20060;-81
2020/12/13 06:19:41;;;;;;;30.55;11.30;;;5.70;93.10;;;;;;5096944;28;20577;-80
2020/12/13 06:22:12;;;;;;;31.38;11.95;;;5.60;93.10;;;;;;5075893;28;20061;-80
2020/12/13 06:24:46;;;;;;;32.22;11.45;;;5.60;93.30;;;;;;5075979;28;20057;-80
2020/12/13 06:27:13;;;;;;;27.08;11.30;;;5.70;93.30;;;;;;5062874;28;20059;-80
2020/12/13 06:29:43;;;;;;;29.67;11.25;;;5.60;93.20;;;;;;5079129;28;20205;-80
2020/12/13 06:32:11;;;;;;;49.38;19.08;;;5.60;93.30;;;;;;5084435;28;20060;-79
2020/12/13 06:34:43;;;;;;;51.03;15.63;;;5.60;93.30;;;;;;5092784;28;20124;-80
2020/12/13 06:37:12;;;;;;;38.88;14.52;;;5.60;93.20;;;;;;5061208;28;20112;-80
2020/12/13 06:39:41;;;;;;;38.38;10.57;;;5.60;93.50;;;;;;5073472;28;20110;-79
2020/12/13 06:42:08;;;;;;;26.73;9.45;;;5.40;94.00;;;;;;5057680;28;20044;-80
2020/12/13 06:44:35;;;;;;;24.10;9.55;;;5.40;94.20;;;;;;5078027;28;20119;-80
2020/12/13 06:47:24;;;;;;;28.08;8.13;;;5.50;94.20;;;;;;5076892;28;20089;-80
2020/12/13 06:49:51;;;;;;;19.13;7.72;;;5.60;94.10;;;;;;5077062;28;20258;-81
2020/12/13 06:52:30;;;;;;;23.77;7.78;;;5.70;93.90;;;;;;5079296;28;20067;-81
2020/12/13 06:55:07;;;;;;;23.77;8.25;;;5.70;93.60;;;;;;5077828;28;20040;-80
2020/12/13 06:57:42;;;;;;;35.47;11.52;;;5.70;93.40;;;;;;5078376;28;20136;-80
2020/12/13 07:00:10;;;;;;;30.63;9.52;;;5.60;93.80;;;;;;5097601;28;20079;-80
2020/12/13 07:02:54;;;;;;;24.55;9.40;;;5.50;94.50;;;;;;5054189;28;20044;-79
2020/12/13 07:05:22;;;;;;;23.70;7.32;;;5.40;94.70;;;;;;5060421;28;20040;-81
2020/12/13 07:07:53;;;;;;;28.90;7.43;;;5.50;94.80;;;;;;5078529;28;20407;-82
2020/12/13 07:10:21;;;;;;;26.02;8.75;;;5.50;94.80;;;;;;5056331;28;20254;-78
2020/12/13 07:12:55;;;;;;;27.45;7.65;;;5.50;94.90;;;;;;5076158;28;20071;-81
2020/12/13 07:15:29;;;;;;;42.97;7.82;;;5.40;94.90;;;;;;5076341;28;20044;-80
2020/12/13 07:17:57;;;;;;;27.60;9.30;;;5.40;95.00;;;;;;5077763;28;20058;-79
2020/12/13 07:20:24;;;;;;;28.25;7.90;;;5.40;94.90;;;;;;5077035;28;20048;-80
2020/12/13 07:22:57;;;;;;;27.92;8.15;;;5.40;95.10;;;;;;5079457;28;20040;-80
2020/12/13 07:25:24;;;;;;;23.15;6.50;;;5.40;95.00;;;;;;5096205;28;20268;-79
2020/12/13 07:27:52;;;;;;;22.33;8.43;;;5.60;95.10;;;;;;5081958;28;20306;-80
2020/12/13 07:30:19;;;;;;;24.83;7.35;;;5.60;94.90;;;;;;5094399;28;20052;-79
2020/12/13 07:32:46;;;;;;;18.33;5.93;;;5.60;94.70;;;;;;5062042;28;20327;-79
2020/12/13 07:35:16;;;;;;;23.13;6.30;;;5.60;94.60;;;;;;5078971;28;20053;-80
2020/12/13 07:37:43;;;;;;;21.90;7.28;;;5.60;94.60;;;;;;5079002;28;20052;-79
2020/12/13 07:40:12;;;;;;;23.40;7.80;;;5.50;94.80;;;;;;5095763;28;20057;-80
2020/12/13 07:42:39;;;;;;;26.45;8.00;;;5.50;94.90;;;;;;5081708;28;20060;-80
2020/12/13 07:45:07;;;;;;;36.55;7.28;;;5.50;95.00;;;;;;5074864;28;20045;-80
2020/12/13 07:47:34;;;;;;;28.90;6.35;;;5.40;95.40;;;;;;5059431;28;20045;-79
2020/12/13 07:50:05;;;;;;;22.17;7.32;;;5.50;95.60;;;;;;5059820;28;20045;-80
2020/12/13 07:52:33;;;;;;;21.65;7.22;;;5.60;95.40;;;;;;5082001;28;20056;-80
2020/12/13 07:55:07;;;;;;;17.77;6.53;;;5.60;95.00;;;;;;5075701;28;20111;-78
2020/12/13 07:57:36;;;;;;;19.42;6.13;;;5.60;95.00;;;;;;5078232;28;20357;-80
2020/12/13 08:00:07;;;;;;;24.17;6.30;;;5.60;95.00;;;;;;5114731;28;20058;-79
2020/12/13 08:02:39;;;;;;;24.50;7.53;;;5.60;95.00;;;;;;5084059;28;20060;-79
2020/12/13 08:05:06;;;;;;;15.20;6.78;;;5.70;95.00;;;;;;5095334;28;20243;-81
2020/12/13 08:07:34;;;;;;;21.38;5.88;;;5.70;94.60;;;;;;5088746;28;20232;-79
2020/12/13 08:10:02;;;;;;;14.98;5.88;;;5.70;94.60;;;;;;5083629;28;20061;-78
2020/12/13 08:12:31;;;;;;;25.08;8.05;;;5.70;94.70;;;;;;5067959;28;20294;-80
2020/12/13 08:14:58;;;;;;;19.17;5.95;;;5.80;94.50;;;;;;5082474;28;20052;-78
2020/12/13 08:17:25;;;;;;;24.52;7.68;;;5.80;94.20;;;;;;5083988;28;20040;-80
2020/12/13 08:19:56;;;;;;;18.02;7.10;;;5.80;94.20;;;;;;5083430;28;20045;-80
2020/12/13 08:22:23;;;;;;;;;;;5.80;94.20;;;;;;5081027;28;20344;-81
2020/12/13 08:24:56;;;;;;;12.38;4.72;;;5.80;93.80;;;;;;5082803;28;19992;-81
2020/12/13 08:27:24;;;;;;;15.45;5.53;;;5.90;93.90;;;;;;5080196;28;20102;-80
2020/12/13 08:29:52;;;;;;;16.08;5.07;;;5.90;93.70;;;;;;5083986;28;20066;-79
2020/12/13 08:32:22;;;;;;;17.83;5.18;;;5.90;93.70;;;;;;5078801;28;20056;-79
2020/12/13 08:34:49;;;;;;;15.80;5.20;;;5.80;93.50;;;;;;5076947;28;20043;-79
2020/12/13 08:37:22;;;;;;;18.95;6.97;;;5.90;93.70;;;;;;5100375;28;20060;-81
2020/12/13 08:39:50;;;;;;;19.25;6.53;;;5.90;93.70;;;;;;5108092;28;20044;-80
2020/12/13 08:42:24;;;;;;;17.98;5.13;;;6.00;93.40;;;;;;5076063;28;20051;-80
2020/12/13 08:44:51;;;;;;;20.63;6.03;;;6.10;93.40;;;;;;5073328;28;20045;-79
2020/12/13 08:47:20;;;;;;;16.52;5.72;;;6.10;93.20;;;;;;5095590;28;20282;-79
2020/12/13 08:49:49;;;;;;;19.10;6.40;;;6.10;93.00;;;;;;5082305;28;20098;-80
2020/12/13 08:52:18;;;;;;;19.73;6.82;;;6.20;92.90;;;;;;5098542;28;20111;-80
2020/12/13 08:54:49;;;;;;;21.15;7.47;;;6.20;92.70;;;;;;5078576;28;20220;-79
2020/12/13 08:57:30;;;;;;;18.23;6.45;;;6.10;92.70;;;;;;5081905;28;20056;-79
2020/12/13 08:59:59;;;;;;;14.75;6.20;;;6.10;93.10;;;;;;5077816;28;20052;-79
2020/12/13 09:02:26;;;;;;;14.73;5.97;;;6.10;92.90;;;;;;5077352;28;20053;-81
2020/12/13 09:04:57;;;;;;;19.30;6.88;;;6.10;92.80;;;;;;5081978;28;20090;-80
2020/12/13 09:07:31;;;;;;;19.77;7.90;;;6.10;93.00;;;;;;5078255;28;20045;-81
2020/12/13 09:10:10;;;;;;;13.63;5.78;;;6.10;92.80;;;;;;5062860;28;20060;-82
2020/12/13 09:12:41;;;;;;;16.73;5.00;;;6.20;92.80;;;;;;5077274;28;20343;-81
2020/12/13 09:15:10;;;;;;;15.90;5.57;;;6.20;92.50;;;;;;5078194;28;20087;-82
2020/12/13 09:17:38;;;;;;;20.95;6.88;;;6.20;92.40;;;;;;5074776;28;20079;-81
2020/12/13 09:20:07;;;;;;;19.60;6.68;;;6.20;92.50;;;;;;5089954;28;20135;-82
2020/12/13 09:22:34;;;;;;;15.32;5.65;;;6.30;92.40;;;;;;5082030;28;20056;-80
2020/12/13 09:25:01;;;;;;;17.00;5.80;;;6.30;92.20;;;;;;5082251;28;20055;-81
2020/12/13 09:27:30;;;;;;;12.98;4.72;;;6.20;91.90;;;;;;5080331;28;20359;-81
2020/12/13 09:30:01;;;;;;;16.27;4.35;;;6.20;92.40;;;;;;5077587;28;20085;-83
2020/12/13 09:32:29;;;;;;;14.07;6.18;;;6.20;92.40;;;;;;5077675;28;20052;-81
2020/12/13 09:34:59;;;;;;;21.17;6.70;;;6.30;92.30;;;;;;5075542;28;20083;-81
2020/12/13 09:37:26;;;;;;;14.00;5.97;;;6.30;92.20;;;;;;5113528;27;20045;-82
2020/12/13 09:39:54;;;;;;;18.05;6.63;;;6.20;92.40;;;;;;5058156;28;20132;-82
2020/12/13 09:42:23;;;;;;;19.92;6.68;;;6.30;92.30;;;;;;5076037;28;20051;-80
2020/12/13 09:44:51;;;;;;;15.98;6.28;;;6.30;92.20;;;;;;5082295;28;20089;-81
2020/12/13 09:47:18;;;;;;;21.08;7.43;;;6.30;92.20;;;;;;5081515;28;20362;-80
2020/12/13 09:49:45;;;;;;;21.65;8.10;;;6.30;92.50;;;;;;5079203;28;20111;-81
2020/12/13 09:52:12;;;;;;;30.20;8.13;;;6.30;92.60;;;;;;5078385;28;20048;-80
2020/12/13 09:54:39;;;;;;;20.27;6.70;;;6.40;92.60;;;;;;5076803;28;20276;-82
2020/12/13 09:57:06;;;;;;;20.80;6.90;;;6.30;92.40;;;;;;5061960;28;20052;-80
2020/12/13 09:59:33;;;;;;;21.35;7.32;;;6.30;92.50;;;;;;5081965;28;20085;-81
2020/12/13 10:02:00;;;;;;;16.08;6.63;;;6.30;92.60;;;;;;5079459;28;20078;-83
2020/12/13 10:04:31;;;;;;;21.42;7.10;;;6.40;92.60;;;;;;5038812;28;20057;-82
2020/12/13 10:09:40;;;;;;;21.90;7.68;;;6.30;92.70;;;;;;5030664;28;20052;-82
2020/12/13 10:12:07;;;;;;;15.98;6.50;;;6.40;92.70;;;;;;5059272;28;20087;-82
2020/12/13 10:14:35;;;;;;;21.23;7.22;;;6.40;92.80;;;;;;5040849;28;20057;-82
2020/12/13 10:17:03;;;;;;;21.15;7.25;;;6.40;92.90;;;;;;5034797;28;20149;-82
2020/12/13 10:19:32;;;;;;;18.60;7.18;;;6.50;92.40;;;;;;5021838;28;20091;-80
2020/12/13 10:22:00;;;;;;;23.10;8.60;;;6.40;92.30;;;;;;5040118;28;20125;-80
2020/12/13 10:24:27;;;;;;;22.50;7.07;;;6.40;92.30;;;;;;5059507;28;20291;-82
2020/12/13 10:26:55;;;;;;;19.75;7.28;;;6.50;92.50;;;;;;5060559;28;20095;-81
2020/12/13 10:29:22;;;;;;;18.00;5.95;;;6.50;92.40;;;;;;5055961;28;20068;-80
2020/12/13 10:31:48;;;;;;;15.80;6.75;;;6.50;92.30;;;;;;5024324;28;20364;-79
2020/12/13 10:34:16;;;;;;;16.13;6.22;;;6.50;92.30;;;;;;5038415;28;20217;-82
2020/12/13 10:36:44;;;;;;;17.88;6.20;;;6.40;92.60;;;;;;5026103;28;20053;-81
2020/12/13 10:39:12;;;;;;;20.42;5.97;;;6.40;92.70;;;;;;5022153;28;20044;-82
2020/12/13 10:41:39;;;;;;;13.77;6.70;;;6.50;92.50;;;;;;5024714;28;20550;-82
2020/12/13 10:44:06;;;;;;;20.95;6.68;;;6.50;92.60;;;;;;5052954;28;20041;-82
2020/12/13 10:46:38;;;;;;;16.48;6.88;;;6.50;92.60;;;;;;5057226;28;20275;-82
2020/12/13 10:49:06;;;;;;;18.77;7.15;;;6.60;92.30;;;;;;5045751;28;20123;-82
2020/12/13 10:51:32;;;;;;;17.55;6.13;;;6.70;92.40;;;;;;5036579;28;20083;-81
2020/12/13 10:54:01;;;;;;;15.75;5.75;;;6.70;92.20;;;;;;5054900;28;20053;-81
2020/12/13 10:56:28;;;;;;;16.42;5.85;;;6.70;92.00;;;;;;5040170;28;20049;-81
2020/12/13 10:58:55;;;;;;;16.08;6.25;;;6.70;91.90;;;;;;5013793;28;20079;-81
2020/12/13 11:01:22;;;;;;;18.00;7.32;;;6.90;91.70;;;;;;5050461;28;20060;-81
2020/12/13 11:03:49;;;;;;;17.63;6.38;;;6.90;91.50;;;;;;5068053;28;20060;-82
2020/12/13 11:06:16;;;;;;;16.27;6.43;;;6.90;91.40;;;;;;5080741;28;20040;-83
2020/12/13 11:08:44;;;;;;;17.10;6.80;;;6.90;91.80;;;;;;5077127;28;20048;-81
2020/12/13 11:11:12;;;;;;;17.45;6.25;;;6.80;91.40;;;;;;5072587;28;20059;-82
2020/12/13 11:13:39;;;;;;;21.42;7.10;;;6.80;91.80;;;;;;5078268;28;20295;-81
2020/12/13 11:16:08;;;;;;;15.75;7.07;;;6.80;91.80;;;;;;5091089;28;20103;-80
2020/12/13 11:18:37;;;;;;;17.55;5.68;;;6.80;91.80;;;;;;5089595;28;20045;-81
2020/12/13 11:21:04;;;;;;;15.00;5.40;;;6.60;92.00;;;;;;5074829;28;21258;-82
2020/12/13 11:23:33;;;;;;;226.20;108.47;;;6.70;92.10;;;;;;5072995;28;20102;-80
2020/12/13 11:26:00;;;;;;;32.97;15.32;;;6.80;92.10;;;;;;5056758;28;20048;-81
2020/12/13 11:28:35;;;;;;;15.38;6.15;;;6.80;91.90;;;;;;5073796;28;20132;-83
2020/12/13 11:31:15;;;;;;;18.83;7.30;;;6.70;92.20;;;;;;5074446;28;20056;-83
2020/12/13 11:33:42;;;;;;;17.42;6.57;;;6.80;92.30;;;;;;5091560;28;20095;-82
2020/12/13 11:36:10;;;;;;;18.23;6.75;;;6.70;92.20;;;;;;5090456;28;20052;-82
2020/12/13 11:38:37;;;;;;;18.88;7.80;;;6.80;92.10;;;;;;5082871;28;20331;-81
2020/12/13 11:41:06;;;;;;;14.23;6.60;;;6.80;92.10;;;;;;5064917;28;20044;-81
2020/12/13 11:43:37;;;;;;;20.60;7.75;;;6.80;92.30;;;;;;5082353;28;20063;-82
2020/12/13 11:46:05;;;;;;;20.00;6.85;;;7.00;92.30;;;;;;5073371;28;20067;-82
2020/12/13 11:48:36;;;;;;;19.45;8.15;;;6.80;92.20;;;;;;5081877;28;20110;-82
2020/12/13 11:51:04;;;;;;;19.30;7.95;;;6.80;92.20;;;;;;5076950;28;20082;-80
2020/12/13 11:53:31;;;;;;;15.32;7.38;;;6.80;92.20;;;;;;5080322;28;20056;-81
2020/12/13 11:55:58;;;;;;;17.95;7.00;;;6.80;92.20;;;;;;5080615;28;20331;-80
2020/12/13 11:58:25;;;;;;;23.63;7.07;;;6.80;92.40;;;;;;5113257;28;20052;-81
2020/12/13 12:00:54;;;;;;;13.30;7.05;;;6.80;92.70;;;;;;5083717;28;20127;-81
2020/12/13 12:03:29;;;;;;;18.85;7.75;;;6.80;93.00;;;;;;5080568;28;20054;-81
2020/12/13 12:05:56;;;;;;;16.70;7.18;;;6.80;92.80;;;;;;5081834;28;20369;-82
2020/12/13 12:08:23;;;;;;;17.52;6.90;;;6.80;93.00;;;;;;5077629;28;20228;-82
2020/12/13 12:10:52;;;;;;;18.70;7.93;;;6.90;93.00;;;;;;5065107;28;20060;-81
2020/12/13 12:13:22;;;;;;;25.45;8.13;;;6.80;93.10;;;;;;5076300;28;20052;-80
2020/12/13 12:15:48;;;;;;;19.10;8.00;;;6.70;93.30;;;;;;5083557;28;20284;-82
2020/12/13 12:18:16;;;;;;;19.35;7.35;;;6.80;93.40;;;;;;5101153;28;20094;-82
2020/12/13 12:20:43;;;;;;;18.35;7.22;;;6.90;93.40;;;;;;5079272;28;20056;-82
2020/12/13 12:23:10;;;;;;;16.10;8.93;;;6.90;93.50;;;;;;5081347;28;20056;-82
2020/12/13 12:25:37;;;;;;;17.50;7.65;;;6.90;93.50;;;;;;5083757;28;20074;-82
2020/12/13 12:28:04;;;;;;;16.10;7.75;;;6.90;93.50;;;;;;5084855;28;20118;-82
2020/12/13 12:30:31;;;;;;;35.42;13.55;;;6.90;93.60;;;;;;5084220;28;20120;-82
2020/12/13 12:32:59;;;;;;;22.73;10.30;;;7.10;93.40;;;;;;5079609;28;20075;-82
2020/12/13 12:35:29;;;;;;;25.10;11.40;;;7.00;93.40;;;;;;5064296;28;20037;-81
2020/12/13 12:37:56;;;;;;;21.95;9.57;;;7.00;93.60;;;;;;5082639;28;20266;-80
2020/12/13 12:40:23;;;;;;;18.58;8.32;;;7.00;93.70;;;;;;5080510;28;20074;-82
2020/12/13 12:42:50;;;;;;;17.90;7.38;;;7.00;93.70;;;;;;5076047;28;21064;-82
2020/12/13 12:45:17;;;;;;;18.45;8.13;;;7.00;93.80;;;;;;5082609;28;20397;-82
2020/12/13 12:47:44;;;;;;;23.58;7.88;;;7.00;93.70;;;;;;5080826;28;20060;-81
2020/12/13 12:50:12;;;;;;;19.42;8.43;;;7.20;93.70;;;;;;5083634;28;20059;-84
2020/12/13 12:52:40;;;;;;;14.75;7.55;;;7.30;93.30;;;;;;5096699;28;21512;-81
2020/12/13 12:55:07;;;;;;;17.20;7.97;;;7.30;93.30;;;;;;5088063;28;20064;-80
2020/12/13 12:57:34;;;;;;;17.33;7.20;;;7.30;93.50;;;;;;5081748;28;20048;-81
2020/12/13 13:02:45;;;;;;;17.13;8.60;;;7.40;93.40;;;;;;5075016;28;20064;-81
2020/12/13 13:05:16;;;;;;;16.77;8.63;;;7.40;93.50;;;;;;5088186;28;20084;-81
2020/12/13 13:07:45;;;;;;;14.30;6.80;;;7.40;93.60;;;;;;5078122;28;20310;-82
2020/12/13 13:10:16;;;;;;;13.30;7.10;;;7.40;93.70;;;;;;5078313;28;20059;-81